createdAt,value
2024-03-05T00:01:01.743Z,12.27
2024-03-05T00:03:29.725Z,12.60
2024-03-05T00:05:57.536Z,12.45
2024-03-05T00:08:24.751Z,10.65
2024-03-05T00:10:51.905Z,10.35
2024-03-05T00:13:20.178Z,9.93
2024-03-05T00:15:47.843Z,10.95
2024-03-05T00:18:15.199Z,8.63
2024-03-05T00:20:42.623Z,9.65
2024-03-05T00:23:09.909Z,11.65
2024-03-05T00:25:37.153Z,9.13
2024-03-05T00:28:04.410Z,10.25
2024-03-05T00:30:31.570Z,10.77
2024-03-05T00:32:59.754Z,10.38
2024-03-05T00:35:26.786Z,10.85
2024-03-05T00:37:53.838Z,10.93
2024-03-05T00:40:20.849Z,12.98
2024-03-05T00:42:48.139Z,11.32
2024-03-05T00:45:18.526Z,10.93
2024-03-05T00:47:45.795Z,11.55
2024-03-05T00:50:15.027Z,9.63
2024-03-05T00:52:42.286Z,12.10
2024-03-05T00:55:10.153Z,11.65
2024-03-05T00:57:37.926Z,10.40
2024-03-05T01:00:06.740Z,12.38
2024-03-05T01:02:34.042Z,13.15
2024-03-05T01:05:01.211Z,9.75
2024-03-05T01:07:28.536Z,10.52
2024-03-05T01:09:56.058Z,11.25
2024-03-05T01:12:23.166Z,11.77
2024-03-05T01:14:50.324Z,10.55
2024-03-05T01:17:17.450Z,9.70
2024-03-05T01:19:44.520Z,14.13
2024-03-05T01:22:11.874Z,11.40
2024-03-05T01:24:39.117Z,10.65
2024-03-05T01:27:06.430Z,10.98
2024-03-05T01:29:33.551Z,10.10
2024-03-05T01:32:03.097Z,9.45
2024-03-05T01:34:30.544Z,12.68
2024-03-05T01:37:00.442Z,10.73
2024-03-05T01:39:29.468Z,10.25
2024-03-05T01:41:57.969Z,11.88
2024-03-05T01:44:26.376Z,13.85
2024-03-05T01:46:57.220Z,9.85
2024-03-05T01:49:26.201Z,9.77
2024-03-05T01:51:56.240Z,10.52
2024-03-05T01:54:25.142Z,9.57
2024-03-05T01:56:56.079Z,12.07
2024-03-05T01:59:24.274Z,8.93
2024-03-05T02:01:53.351Z,10.73
2024-03-05T02:04:22.926Z,13.65
2024-03-05T02:06:54.271Z,10.07
2024-03-05T02:09:23.018Z,13.98
2024-03-05T02:11:56.587Z,11.38
2024-03-05T02:14:30.927Z,9.85
2024-03-05T02:17:01.329Z,13.93
2024-03-05T02:19:49.536Z,9.57
2024-03-05T02:22:16.995Z,9.80
2024-03-05T02:24:44.496Z,11.23
2024-03-05T02:27:17.411Z,13.20
2024-03-05T02:29:48.185Z,14.35
2024-03-05T02:32:15.721Z,11.55
2024-03-05T02:34:42.682Z,9.23
2024-03-05T02:37:12.845Z,11.60
2024-03-05T02:39:40.244Z,11.63
2024-03-05T02:42:07.453Z,13.70
2024-03-05T02:44:34.489Z,10.43
2024-03-05T02:47:01.729Z,10.38
2024-03-05T02:49:29.302Z,10.70
2024-03-05T02:51:56.386Z,10.82
2024-03-05T02:54:23.406Z,12.68
2024-03-05T02:56:50.837Z,11.82
2024-03-05T02:59:18.759Z,11.23
2024-03-05T03:01:48.125Z,10.05
2024-03-05T03:04:16.808Z,11.13
2024-03-05T03:06:44.384Z,10.80
2024-03-05T03:09:11.865Z,12.63
2024-03-05T03:11:42.708Z,13.10
2024-03-05T03:14:10.530Z,12.80
2024-03-05T03:16:37.840Z,13.23
2024-03-05T03:19:05.868Z,11.05
2024-03-05T03:21:33.318Z,12.52
2024-03-05T03:24:00.705Z,12.73
2024-03-05T03:26:28.047Z,10.93
2024-03-05T03:28:56.092Z,11.65
2024-03-05T03:31:24.077Z,13.70
2024-03-05T03:33:51.268Z,11.98
2024-03-05T03:36:25.635Z,13.63
2024-03-05T03:38:53.127Z,12.80
2024-03-05T03:41:20.995Z,12.35
2024-03-05T03:43:48.786Z,14.00
2024-03-05T03:46:16.170Z,11.05
2024-03-05T03:48:43.449Z,16.75
2024-03-05T03:51:11.032Z,10.95
2024-03-05T03:53:38.401Z,11.63
2024-03-05T03:56:05.935Z,12.35
2024-03-05T03:58:34.031Z,13.75
2024-03-05T04:01:01.527Z,12.13
2024-03-05T04:03:31.022Z,13.48
2024-03-05T04:05:58.206Z,12.70
2024-03-05T04:08:25.483Z,13.02
2024-03-05T04:10:52.587Z,12.60
2024-03-05T04:13:19.799Z,14.10
2024-03-05T04:15:46.836Z,11.50
2024-03-05T04:18:14.232Z,13.35
2024-03-05T04:20:42.136Z,10.18
2024-03-05T04:23:11.626Z,12.07
2024-03-05T04:25:41.659Z,13.43
2024-03-05T04:28:13.800Z,12.00
2024-03-05T04:30:43.018Z,13.30
2024-03-05T04:33:12.268Z,12.05
2024-03-05T04:35:39.776Z,13.40
2024-03-05T04:38:06.940Z,12.00
2024-03-05T04:40:35.382Z,11.70
2024-03-05T04:47:46.244Z,10.68
2024-03-05T04:50:16.154Z,11.32
2024-03-05T04:52:44.821Z,11.70
2024-03-05T04:55:15.042Z,9.50
2024-03-05T04:57:42.370Z,11.13
2024-03-05T05:00:21.165Z,9.80
2024-03-05T05:02:50.433Z,11.05
2024-03-05T05:05:18.188Z,11.32
2024-03-05T05:07:46.717Z,11.77
2024-03-05T05:10:14.332Z,13.15
2024-03-05T05:12:41.704Z,13.10
2024-03-05T05:15:09.435Z,13.32
2024-03-05T05:17:36.779Z,12.82
2024-03-05T05:20:09.626Z,11.68
2024-03-05T05:22:40.089Z,14.97
2024-03-05T05:25:07.970Z,12.52
2024-03-05T05:27:38.739Z,11.02
2024-03-05T05:30:12.988Z,11.50
2024-03-05T05:32:41.502Z,10.70
2024-03-05T05:35:09.585Z,12.07
2024-03-05T05:37:38.318Z,12.00
2024-03-05T05:40:07.095Z,11.00
2024-03-05T05:42:34.593Z,13.20
2024-03-05T05:45:01.930Z,11.52
2024-03-05T05:47:30.978Z,12.10
2024-03-05T05:49:59.702Z,11.18
2024-03-05T05:52:27.071Z,12.05
2024-03-05T05:54:55.827Z,12.00
2024-03-05T05:57:22.904Z,11.40
2024-03-05T05:59:50.122Z,11.30
2024-03-05T06:02:20.809Z,9.80
2024-03-05T06:04:48.181Z,12.40
2024-03-05T06:07:15.403Z,12.18
2024-03-05T06:09:42.751Z,12.18
2024-03-05T06:12:09.973Z,10.40
2024-03-05T06:14:37.496Z,9.77
2024-03-05T06:17:04.847Z,11.02
2024-03-05T06:19:32.012Z,11.70
2024-03-05T06:21:59.162Z,13.07
2024-03-05T06:24:26.621Z,12.15
2024-03-05T06:26:53.747Z,11.68
2024-03-05T06:29:20.861Z,11.60
2024-03-05T06:31:49.024Z,10.85
2024-03-05T06:34:16.587Z,12.20
2024-03-05T06:36:47.889Z,13.13
2024-03-05T06:39:30.754Z,11.82
2024-03-05T06:41:59.878Z,11.80
2024-03-05T06:44:37.026Z,12.50
2024-03-05T06:47:06.134Z,12.35
2024-03-05T06:49:40.031Z,11.85
2024-03-05T06:52:25.873Z,12.00
2024-03-05T06:55:11.637Z,9.10
2024-03-05T06:57:38.724Z,10.95
2024-03-05T07:00:16.597Z,10.68
2024-03-05T07:02:43.953Z,10.75
2024-03-05T07:05:11.235Z,12.30
2024-03-05T07:07:38.890Z,12.23
2024-03-05T07:10:15.385Z,11.95
2024-03-05T07:12:46.348Z,12.80
2024-03-05T07:15:16.182Z,11.38
2024-03-05T07:17:46.437Z,10.50
2024-03-05T07:20:19.958Z,13.68
2024-03-05T07:22:48.256Z,11.90
2024-03-05T07:25:18.775Z,11.68
2024-03-05T07:27:48.033Z,13.63
2024-03-05T07:30:19.666Z,10.90
2024-03-05T07:32:50.234Z,11.13
2024-03-05T07:35:19.648Z,12.48
2024-03-05T07:37:48.092Z,11.00
2024-03-05T07:40:21.814Z,10.68
2024-03-05T07:42:53.233Z,14.65
2024-03-05T07:45:27.358Z,11.05
2024-03-05T07:47:54.558Z,12.10
2024-03-05T07:50:21.850Z,13.88
2024-03-05T07:52:49.261Z,11.18
2024-03-05T07:55:28.961Z,12.55
2024-03-05T07:57:58.865Z,9.93
2024-03-05T08:00:26.146Z,10.73
2024-03-05T08:02:56.983Z,11.30
2024-03-05T08:05:24.617Z,12.05
2024-03-05T08:08:00.563Z,12.23
2024-03-05T08:10:27.862Z,12.35
2024-03-05T08:12:56.931Z,11.82
2024-03-05T08:15:28.663Z,12.68
2024-03-05T08:17:57.743Z,12.50
2024-03-05T08:20:28.046Z,9.88
2024-03-05T08:22:56.951Z,12.85
2024-03-05T08:25:25.433Z,13.02
2024-03-05T08:27:56.439Z,11.27
2024-03-05T08:30:27.440Z,12.20
2024-03-05T08:32:55.248Z,11.98
2024-03-05T08:35:23.435Z,11.25
2024-03-05T08:37:51.292Z,11.52
2024-03-05T08:40:22.561Z,11.90
2024-03-05T08:42:51.275Z,11.15
2024-03-05T08:45:26.209Z,10.05
2024-03-05T08:47:55.852Z,9.30
2024-03-05T08:50:25.140Z,10.70
2024-03-05T08:52:52.249Z,12.68
2024-03-05T08:55:19.601Z,10.00
2024-03-05T08:57:47.358Z,12.00
2024-03-05T09:00:32.007Z,10.55
2024-03-05T09:03:09.561Z,9.90
2024-03-05T09:05:37.388Z,9.23
2024-03-05T09:08:06.869Z,9.68
2024-03-05T09:10:35.572Z,9.35
2024-03-05T09:13:03.671Z,9.82
2024-03-05T09:15:31.585Z,9.00
2024-03-05T09:18:00.415Z,10.57
2024-03-05T09:20:27.543Z,8.85
2024-03-05T09:22:57.502Z,9.82
2024-03-05T09:25:24.746Z,10.38
2024-03-05T09:27:52.054Z,7.70
2024-03-05T09:30:20.737Z,8.93
2024-03-05T09:32:48.241Z,8.70
2024-03-05T09:35:17.097Z,8.23
2024-03-05T09:37:49.698Z,9.88
2024-03-05T09:42:49.499Z,8.48
2024-03-05T09:45:19.057Z,9.45
2024-03-05T09:47:49.796Z,10.48
2024-03-05T09:50:18.996Z,9.18
2024-03-05T09:52:48.447Z,18.88
2024-03-05T09:55:19.106Z,11.55
2024-03-05T09:57:50.488Z,10.00
2024-03-05T10:00:22.389Z,11.35
2024-03-05T10:02:53.199Z,9.85
2024-03-05T10:05:21.458Z,8.27
2024-03-05T10:07:50.166Z,9.02
2024-03-05T10:10:25.385Z,7.20
2024-03-05T10:12:52.631Z,7.07
2024-03-05T10:15:23.587Z,8.80
2024-03-05T10:17:54.716Z,7.65
2024-03-05T10:20:28.597Z,8.63
2024-03-05T10:22:59.763Z,6.93
2024-03-05T10:25:31.328Z,6.55
2024-03-05T10:27:58.782Z,8.27
2024-03-05T10:30:34.251Z,8.63
2024-03-05T10:33:09.088Z,7.05
2024-03-05T10:35:39.668Z,10.20
2024-03-05T10:38:14.044Z,8.15
2024-03-05T10:40:46.034Z,6.43
2024-03-05T10:43:19.868Z,5.97
2024-03-05T10:45:48.610Z,6.88
2024-03-05T10:48:19.761Z,7.07
2024-03-05T10:50:50.681Z,5.25
2024-03-05T10:53:19.579Z,6.97
2024-03-05T10:55:52.676Z,7.38
2024-03-05T10:58:21.098Z,5.82
2024-03-05T11:00:51.234Z,4.72
2024-03-05T11:03:40.528Z,5.45
2024-03-05T11:06:10.659Z,5.88
2024-03-05T11:08:38.479Z,6.65
2024-03-05T11:11:11.091Z,6.05
2024-03-05T11:13:40.690Z,7.72
2024-03-05T11:16:09.680Z,5.93
2024-03-05T11:18:38.708Z,5.80
2024-03-05T11:21:10.548Z,6.10
2024-03-05T11:23:51.312Z,5.55
2024-03-05T11:26:20.544Z,6.82
2024-03-05T11:28:54.432Z,7.32
2024-03-05T11:31:22.483Z,7.03
2024-03-05T11:34:10.149Z,6.90
2024-03-05T11:36:37.953Z,7.50
2024-03-05T11:39:16.422Z,8.75
2024-03-05T11:41:45.022Z,8.18
2024-03-05T11:44:14.395Z,6.22
2024-03-05T11:46:46.152Z,6.25
2024-03-05T11:49:14.961Z,9.27
2024-03-05T11:51:44.303Z,5.90
2024-03-05T11:54:13.941Z,6.95
2024-03-05T11:56:43.221Z,9.15
2024-03-05T11:59:11.528Z,6.30
2024-03-05T12:01:41.108Z,8.50
2024-03-05T12:04:09.617Z,5.75
2024-03-05T12:06:40.340Z,6.47
2024-03-05T12:09:20.156Z,7.18
2024-03-05T12:11:59.072Z,6.90
2024-03-05T12:14:26.410Z,4.95
2024-03-05T12:16:53.778Z,6.20
2024-03-05T12:19:23.645Z,4.90
2024-03-05T12:21:50.772Z,7.10
2024-03-05T12:24:18.030Z,6.75
2024-03-05T12:26:48.749Z,5.50
2024-03-05T12:29:34.955Z,4.63
2024-03-05T12:32:07.750Z,4.82
2024-03-05T12:34:36.267Z,4.05
2024-03-05T12:37:09.516Z,6.55
2024-03-05T12:39:37.088Z,5.78
2024-03-05T12:42:08.576Z,6.75
2024-03-05T12:44:36.092Z,5.15
2024-03-05T12:47:15.418Z,5.10
2024-03-05T12:49:45.863Z,3.88
2024-03-05T12:52:18.581Z,3.88
2024-03-05T12:54:46.259Z,5.85
2024-03-05T12:57:28.008Z,4.53
2024-03-05T12:59:57.512Z,2.97
2024-03-05T13:02:24.895Z,4.63
2024-03-05T13:04:53.094Z,3.30
2024-03-05T13:07:22.274Z,5.30
2024-03-05T13:09:49.860Z,4.35
2024-03-05T13:12:18.357Z,3.83
2024-03-05T13:14:45.501Z,3.70
2024-03-05T13:17:12.503Z,5.03
2024-03-05T13:19:39.821Z,4.90
2024-03-05T13:22:09.803Z,5.85
2024-03-05T13:24:39.266Z,13.82
2024-03-05T13:27:06.528Z,5.55
2024-03-05T13:29:34.624Z,8.82
2024-03-05T13:32:01.888Z,4.40
2024-03-05T13:34:29.322Z,6.03
2024-03-05T13:36:56.472Z,2.38
2024-03-05T13:39:25.720Z,9.05
2024-03-05T13:41:54.963Z,4.05
2024-03-05T13:44:25.861Z,4.28
2024-03-05T13:47:04.236Z,4.20
2024-03-05T13:49:47.754Z,6.18
2024-03-05T13:52:15.870Z,4.35
2024-03-05T13:54:45.417Z,3.83
2024-03-05T13:57:12.613Z,4.25
2024-03-05T13:59:39.659Z,4.30
2024-03-05T14:02:09.835Z,4.05
2024-03-05T14:04:37.149Z,5.82
2024-03-05T14:07:04.626Z,4.45
2024-03-05T14:09:31.772Z,3.20
2024-03-05T14:11:58.891Z,3.92
2024-03-05T14:14:26.320Z,3.70
2024-03-05T14:16:53.488Z,4.40
2024-03-05T14:19:24.227Z,4.28
2024-03-05T14:21:53.729Z,6.65
2024-03-05T14:24:20.851Z,5.05
2024-03-05T14:26:50.902Z,2.80
2024-03-05T14:29:18.166Z,4.85
2024-03-05T14:31:45.225Z,4.18
2024-03-05T14:34:14.166Z,6.22
2024-03-05T14:36:41.347Z,7.07
2024-03-05T14:39:11.449Z,3.42
2024-03-05T14:41:38.594Z,4.50
2024-03-05T14:44:06.110Z,4.97
2024-03-05T14:46:34.196Z,6.30
2024-03-05T14:49:01.526Z,4.72
2024-03-05T14:51:30.206Z,5.18
2024-03-05T14:53:58.225Z,6.47
2024-03-05T14:56:31.231Z,5.88
2024-03-05T14:59:01.245Z,8.60
2024-03-05T15:01:28.415Z,6.10
2024-03-05T15:03:55.893Z,3.90
2024-03-05T15:06:23.265Z,4.13
2024-03-05T15:08:53.318Z,5.35
2024-03-05T15:11:20.981Z,5.05
2024-03-05T15:13:48.093Z,5.57
2024-03-05T15:16:15.304Z,6.53
2024-03-05T15:18:42.589Z,6.28
2024-03-05T15:21:15.615Z,7.68
2024-03-05T15:23:43.727Z,4.95
2024-03-05T15:26:11.845Z,5.43
2024-03-05T15:28:41.506Z,5.32
2024-03-05T15:31:10.689Z,5.43
2024-03-05T15:33:41.465Z,6.47
2024-03-05T15:36:09.680Z,5.18
2024-03-05T15:38:36.862Z,4.10
2024-03-05T15:41:07.881Z,4.22
2024-03-05T15:43:35.351Z,6.03
2024-03-05T15:46:02.899Z,5.82
2024-03-05T15:48:31.825Z,5.40
2024-03-05T15:50:59.957Z,5.88
2024-03-05T15:53:27.789Z,5.35
2024-03-05T15:56:13.442Z,5.82
2024-03-05T15:58:43.960Z,5.80
2024-03-05T16:01:12.595Z,6.20
2024-03-05T16:03:56.937Z,5.72
2024-03-05T16:06:30.156Z,5.80
2024-03-05T16:08:57.371Z,5.10
2024-03-05T16:11:26.803Z,5.97
2024-03-05T16:13:55.124Z,7.20
2024-03-05T16:16:24.837Z,3.63
2024-03-05T16:18:52.259Z,4.90
2024-03-05T16:21:19.930Z,5.32
2024-03-05T16:23:47.311Z,7.25
2024-03-05T16:26:14.450Z,9.52
2024-03-05T16:28:41.623Z,6.32
2024-03-05T16:31:13.126Z,5.70
2024-03-05T16:36:12.086Z,5.60
2024-03-05T16:38:39.143Z,6.50
2024-03-05T16:41:06.329Z,7.28
2024-03-05T16:43:33.965Z,6.53
2024-03-05T16:46:01.337Z,5.55
2024-03-05T16:48:28.664Z,6.18
2024-03-05T16:50:55.889Z,5.55
2024-03-05T16:53:23.389Z,7.00
2024-03-05T16:55:50.626Z,6.32
2024-03-05T16:58:19.634Z,6.72
2024-03-05T17:00:56.151Z,5.65
2024-03-05T17:03:25.813Z,6.00
2024-03-05T17:05:54.206Z,7.28
2024-03-05T17:08:22.637Z,6.43
2024-03-05T17:10:52.402Z,5.63
2024-03-05T17:13:20.722Z,12.25
2024-03-05T17:16:00.709Z,5.55
2024-03-05T17:18:30.775Z,7.43
2024-03-05T17:20:59.323Z,10.02
2024-03-05T17:23:27.900Z,6.82
2024-03-05T17:25:58.786Z,5.32
2024-03-05T17:28:30.426Z,6.25
2024-03-05T17:31:00.517Z,8.15
2024-03-05T17:33:32.003Z,7.45
2024-03-05T17:35:59.424Z,8.63
2024-03-05T17:38:30.480Z,9.75
2024-03-05T17:41:00.922Z,7.43
2024-03-05T17:43:28.085Z,6.28
2024-03-05T17:45:55.469Z,8.02
2024-03-05T17:48:23.711Z,4.85
2024-03-05T17:50:53.476Z,6.10
2024-03-05T17:53:21.796Z,4.15
2024-03-05T17:55:52.468Z,5.40
2024-03-05T17:58:22.974Z,5.25
2024-03-05T18:00:50.219Z,5.20
2024-03-05T18:03:22.545Z,5.70
2024-03-05T18:05:49.890Z,3.55
2024-03-05T18:08:17.272Z,6.63
2024-03-05T18:10:47.501Z,5.00
2024-03-05T18:13:18.586Z,5.10
2024-03-05T18:15:47.267Z,7.20
2024-03-05T18:18:19.335Z,5.45
2024-03-05T18:20:47.573Z,4.05
2024-03-05T18:23:14.889Z,6.40
2024-03-05T18:25:43.309Z,5.57
2024-03-05T18:28:11.015Z,5.80
2024-03-05T18:30:43.417Z,5.70
2024-03-05T18:33:12.825Z,7.50
2024-03-05T18:35:41.587Z,6.30
2024-03-05T18:40:41.416Z,5.47
2024-03-05T18:43:11.140Z,7.78
2024-03-05T18:45:38.864Z,7.55
2024-03-05T18:48:10.106Z,7.55
2024-03-05T18:50:38.794Z,7.90
2024-03-05T18:53:07.655Z,7.50
2024-03-05T18:55:37.576Z,6.93
2024-03-05T18:58:09.653Z,7.20
2024-03-05T19:00:41.660Z,7.80
2024-03-05T19:03:09.373Z,5.80
2024-03-05T19:05:37.808Z,7.18
2024-03-05T19:08:07.816Z,6.50
2024-03-05T19:10:37.585Z,8.80
2024-03-05T19:13:10.147Z,5.57
2024-03-05T19:15:41.077Z,6.10
2024-03-05T19:18:13.640Z,6.43
2024-03-05T19:20:40.801Z,6.47
2024-03-05T19:23:11.831Z,5.72
2024-03-05T19:25:39.981Z,6.05
2024-03-05T19:28:08.501Z,5.82
2024-03-05T19:30:38.990Z,6.90
2024-03-05T19:33:06.614Z,5.03
2024-03-05T19:35:47.741Z,5.97
2024-03-05T19:38:16.807Z,6.15
2024-03-05T19:40:46.554Z,4.28
2024-03-05T19:48:55.948Z,8.48
2024-03-05T19:51:35.178Z,8.02
2024-03-05T19:57:20.232Z,7.28
2024-03-05T19:59:47.424Z,6.07
2024-03-05T20:02:14.639Z,5.90
2024-03-05T20:04:43.056Z,6.05
2024-03-05T20:07:11.813Z,6.47
2024-03-05T20:09:39.518Z,5.40
2024-03-05T20:12:07.042Z,6.45
2024-03-05T20:14:37.202Z,5.43
2024-03-05T20:17:08.803Z,4.82
2024-03-05T20:19:39.253Z,4.55
2024-03-05T20:22:07.166Z,6.45
2024-03-05T20:24:37.036Z,6.43
2024-03-05T20:27:04.262Z,5.63
2024-03-05T20:29:31.431Z,5.45
2024-03-05T20:31:58.796Z,5.35
2024-03-05T20:34:27.795Z,5.72
2024-03-05T20:36:55.714Z,6.88
2024-03-05T20:39:22.815Z,8.55
2024-03-05T20:41:49.961Z,6.50
2024-03-05T20:44:18.146Z,8.55
2024-03-05T20:46:45.216Z,8.15
2024-03-05T20:49:14.665Z,8.43
2024-03-05T20:51:41.896Z,8.82
2024-03-05T20:54:09.086Z,6.47
2024-03-05T20:56:36.157Z,6.88
2024-03-05T20:59:03.474Z,5.82
2024-03-05T21:01:33.607Z,6.72
2024-03-05T21:04:01.672Z,7.53
2024-03-05T21:06:28.889Z,5.68
2024-03-05T21:08:59.560Z,8.27
2024-03-05T21:11:26.917Z,7.35
2024-03-05T21:13:55.163Z,5.68
2024-03-05T21:16:22.307Z,5.97
2024-03-05T21:18:51.299Z,5.82
2024-03-05T21:21:18.562Z,6.18
2024-03-05T21:23:45.758Z,6.00
2024-03-05T21:26:27.607Z,4.00
2024-03-05T21:29:01.812Z,5.78
2024-03-05T21:31:30.269Z,4.50
2024-03-05T21:33:57.516Z,7.45
2024-03-05T21:36:27.504Z,6.38
2024-03-05T21:38:54.982Z,6.57
2024-03-05T21:41:22.024Z,5.93
2024-03-05T21:43:50.311Z,5.97
2024-03-05T21:46:17.522Z,5.00
2024-03-05T21:48:45.228Z,3.33
2024-03-05T21:51:15.919Z,4.05
2024-03-05T21:53:44.142Z,4.80
2024-03-05T21:56:11.501Z,4.10
2024-03-05T21:58:43.383Z,3.67
2024-03-05T22:01:11.042Z,5.03
2024-03-05T22:03:38.214Z,6.30
2024-03-05T22:06:15.023Z,6.25
2024-03-05T22:08:47.539Z,5.20
2024-03-05T22:11:15.533Z,5.18
2024-03-05T22:13:42.804Z,3.78
2024-03-05T22:16:09.880Z,4.18
2024-03-05T22:18:37.776Z,7.18
2024-03-05T22:21:05.229Z,5.47
2024-03-05T22:23:33.088Z,4.45
2024-03-05T22:26:00.208Z,6.40
2024-03-05T22:28:27.518Z,3.30
2024-03-05T22:30:55.649Z,6.07
2024-03-05T22:33:23.625Z,3.60
2024-03-05T22:35:50.828Z,4.93
2024-03-05T22:38:18.066Z,4.45
2024-03-05T22:40:45.201Z,4.22
2024-03-05T22:43:13.337Z,3.83
2024-03-05T22:45:40.369Z,5.50
2024-03-05T22:48:07.682Z,3.90
2024-03-05T22:50:34.758Z,4.40
2024-03-05T22:53:02.173Z,6.82
2024-03-05T22:55:29.376Z,5.43
2024-03-05T22:57:56.423Z,4.40
2024-03-05T23:00:24.477Z,5.13
2024-03-05T23:02:52.894Z,7.00
2024-03-05T23:05:21.218Z,6.03
2024-03-05T23:07:48.925Z,7.15
2024-03-05T23:10:17.702Z,5.45
2024-03-05T23:12:46.358Z,6.63
2024-03-05T23:15:16.513Z,6.93
2024-03-05T23:17:44.710Z,4.03
2024-03-05T23:20:13.024Z,4.00
2024-03-05T23:22:40.865Z,6.32
2024-03-05T23:25:08.959Z,4.55
2024-03-05T23:27:48.500Z,3.85
2024-03-05T23:30:19.889Z,4.68
2024-03-05T23:32:47.832Z,5.32
2024-03-05T23:35:15.875Z,5.40
2024-03-05T23:37:43.265Z,4.68
2024-03-05T23:40:11.144Z,5.30
2024-03-05T23:42:39.566Z,4.07
2024-03-05T23:45:08.069Z,5.00
2024-03-05T23:47:35.596Z,5.03
2024-03-05T23:50:03.462Z,3.80
2024-03-05T23:52:33.467Z,3.75
2024-03-05T23:55:02.693Z,6.40
2024-03-05T23:57:31.275Z,7.05
2024-03-05T23:59:58.401Z,7.05
